createdAt,value
2022-09-24T00:02:33.387Z,12.40
2022-09-24T00:05:07.306Z,12.40
2022-09-24T00:07:41.136Z,12.40
2022-09-24T00:10:15.151Z,12.40
2022-09-24T00:12:49.178Z,12.40
2022-09-24T00:15:23.591Z,12.30
2022-09-24T00:17:57.050Z,12.30
2022-09-24T00:20:24.379Z,12.30
2022-09-24T00:22:58.136Z,12.20
2022-09-24T00:25:57.125Z,12.30
2022-09-24T00:28:24.412Z,12.30
2022-09-24T00:30:59.211Z,12.30
2022-09-24T00:33:28.850Z,12.30
2022-09-24T00:36:12.143Z,12.30
2022-09-24T00:38:39.396Z,12.30
2022-09-24T00:41:13.160Z,12.30
2022-09-24T00:43:40.500Z,12.30
2022-09-24T00:46:39.573Z,12.30
2022-09-24T00:49:26.269Z,12.20
2022-09-24T00:51:53.969Z,12.20
2022-09-24T00:54:33.439Z,12.20
2022-09-24T00:57:10.148Z,12.20
2022-09-24T00:59:44.064Z,12.20
2022-09-24T01:02:18.086Z,12.20
2022-09-24T01:04:55.752Z,12.20
2022-09-24T01:07:23.934Z,12.20
2022-09-24T01:09:58.193Z,12.10
2022-09-24T01:12:59.178Z,12.10
2022-09-24T01:15:34.899Z,12.10
2022-09-24T01:18:29.169Z,12.20
2022-09-24T01:21:25.881Z,12.10
2022-09-24T01:25:02.228Z,12.10
2022-09-24T01:27:55.606Z,12.10
2022-09-24T01:30:32.143Z,12.00
2022-09-24T01:33:04.470Z,12.00
2022-09-24T01:35:52.040Z,12.00
2022-09-24T01:38:25.411Z,12.20
2022-09-24T01:41:01.196Z,12.20
2022-09-24T01:43:30.845Z,12.20
2022-09-24T01:46:10.663Z,12.10
2022-09-24T01:48:38.962Z,12.00
2022-09-24T01:51:30.184Z,12.00
2022-09-24T01:54:25.663Z,12.00
2022-09-24T01:57:24.216Z,11.90
2022-09-24T01:59:59.479Z,11.90
2022-09-24T02:02:55.080Z,11.90
2022-09-24T02:05:35.914Z,11.90
2022-09-24T02:08:30.175Z,12.00
2022-09-24T02:11:08.475Z,12.00
2022-09-24T02:13:47.621Z,12.00
2022-09-24T02:16:20.738Z,11.90
2022-09-24T02:18:58.301Z,11.80
2022-09-24T02:21:28.015Z,11.80
2022-09-24T02:24:25.109Z,11.80
2022-09-24T02:26:59.408Z,11.80
2022-09-24T02:29:33.110Z,11.80
2022-09-24T02:32:01.167Z,11.70
2022-09-24T02:34:40.131Z,11.70
2022-09-24T02:37:19.349Z,11.60
2022-09-24T02:39:46.988Z,11.60
2022-09-24T02:42:22.953Z,11.60
2022-09-24T02:44:50.313Z,11.60
2022-09-24T02:47:25.059Z,11.60
2022-09-24T02:49:52.548Z,11.60
2022-09-24T02:52:26.329Z,11.60
2022-09-24T02:54:53.795Z,11.50
2022-09-24T02:57:28.195Z,11.50
2022-09-24T02:59:55.394Z,11.60
2022-09-24T03:02:30.339Z,11.60
2022-09-24T03:04:57.658Z,11.60
2022-09-24T03:07:31.192Z,11.60
2022-09-24T03:09:59.908Z,11.60
2022-09-24T03:12:34.129Z,11.50
2022-09-24T03:15:01.313Z,11.50
2022-09-24T03:17:36.159Z,11.50
2022-09-24T03:20:11.087Z,11.50
2022-09-24T03:22:38.574Z,11.40
2022-09-24T03:25:20.133Z,11.40
2022-09-24T03:27:54.105Z,11.40
2022-09-24T03:30:46.162Z,11.30
2022-09-24T03:33:14.220Z,11.30
2022-09-24T03:35:42.788Z,11.30
2022-09-24T03:38:16.151Z,11.30
2022-09-24T03:40:43.329Z,11.30
2022-09-24T03:43:10.702Z,11.30
2022-09-24T03:45:45.095Z,11.30
2022-09-24T03:48:12.536Z,11.30
2022-09-24T03:50:46.226Z,11.30
2022-09-24T03:53:14.893Z,11.30
2022-09-24T03:55:54.241Z,11.40
2022-09-24T03:58:28.386Z,11.40
2022-09-24T04:00:57.791Z,11.30
2022-09-24T04:03:32.149Z,11.30
2022-09-24T04:06:02.578Z,11.30
2022-09-24T04:08:37.218Z,11.30
2022-09-24T04:11:04.777Z,11.30
2022-09-24T04:13:39.269Z,11.30
2022-09-24T04:16:06.811Z,11.30
2022-09-24T04:18:41.051Z,11.20
2022-09-24T04:21:09.649Z,11.20
2022-09-24T04:23:44.206Z,11.30
2022-09-24T04:26:24.097Z,11.20
2022-09-24T04:28:51.641Z,11.20
2022-09-24T04:31:20.152Z,11.20
2022-09-24T04:33:54.129Z,11.10
2022-09-24T04:36:21.967Z,11.10
2022-09-24T04:38:56.409Z,11.10
2022-09-24T04:41:23.690Z,11.10
2022-09-24T04:43:58.397Z,11.10
2022-09-24T04:46:25.923Z,11.10
2022-09-24T04:49:03.427Z,11.10
2022-09-24T04:51:34.907Z,11.20
2022-09-24T04:54:10.195Z,11.30
2022-09-24T04:56:37.561Z,11.30
2022-09-24T04:59:12.174Z,11.30
2022-09-24T05:01:46.341Z,11.20
2022-09-24T05:04:20.228Z,11.20
2022-09-24T05:06:48.668Z,11.10
2022-09-24T05:09:22.137Z,11.10
2022-09-24T05:11:49.598Z,11.10
2022-09-24T05:14:23.187Z,11.00
2022-09-24T05:16:50.442Z,11.00
2022-09-24T05:19:24.330Z,11.00
2022-09-24T05:21:58.374Z,11.00
2022-09-24T05:24:32.361Z,11.00
2022-09-24T05:27:10.335Z,11.00
2022-09-24T05:29:45.435Z,11.00
2022-09-24T05:32:27.152Z,11.10
2022-09-24T05:34:54.774Z,11.20
2022-09-24T05:37:28.143Z,11.20
2022-09-24T05:39:55.666Z,11.20
2022-09-24T05:42:29.314Z,11.20
2022-09-24T05:44:59.289Z,11.30
2022-09-24T05:47:33.901Z,11.40
2022-09-24T05:50:01.314Z,11.40
2022-09-24T05:52:35.125Z,11.60
2022-09-24T05:55:02.578Z,11.70
2022-09-24T05:57:36.037Z,11.80
2022-09-24T06:00:04.926Z,11.90
2022-09-24T06:02:39.154Z,11.90
2022-09-24T06:05:14.304Z,11.90
2022-09-24T06:07:48.181Z,11.90
2022-09-24T06:10:17.215Z,11.90
2022-09-24T06:12:51.220Z,11.90
2022-09-24T06:15:18.768Z,12.00
2022-09-24T06:17:52.321Z,12.00
2022-09-24T06:20:26.315Z,12.00
2022-09-24T06:22:57.815Z,12.00
2022-09-24T06:25:33.043Z,12.00
2022-09-24T06:28:02.819Z,12.10
2022-09-24T06:30:42.216Z,12.10
2022-09-24T06:33:11.852Z,12.10
2022-09-24T06:35:48.102Z,12.10
2022-09-24T06:38:24.163Z,12.10
2022-09-24T06:40:58.136Z,12.10
2022-09-24T06:43:25.634Z,12.20
2022-09-24T06:46:03.259Z,12.20
2022-09-24T06:48:31.442Z,12.30
2022-09-24T06:51:10.407Z,12.30
2022-09-24T06:53:37.631Z,12.40
2022-09-24T06:56:11.222Z,12.40
2022-09-24T06:58:38.852Z,12.40
2022-09-24T07:01:14.234Z,12.40
2022-09-24T07:03:48.242Z,12.50
2022-09-24T07:06:22.502Z,12.50
2022-09-24T07:08:52.686Z,12.60
2022-09-24T07:11:26.114Z,12.70
2022-09-24T07:13:53.841Z,12.80
2022-09-24T07:16:27.360Z,12.90
2022-09-24T07:18:55.108Z,13.00
2022-09-24T07:21:29.267Z,13.00
2022-09-24T07:24:16.228Z,13.10
2022-09-24T07:26:43.531Z,13.10
2022-09-24T07:29:17.332Z,13.20
2022-09-24T07:31:51.214Z,13.20
2022-09-24T07:34:18.735Z,13.20
2022-09-24T07:36:52.196Z,13.30
2022-09-24T07:39:27.168Z,13.30
2022-09-24T07:41:54.912Z,13.40
2022-09-24T07:44:32.327Z,13.40
2022-09-24T07:47:06.222Z,13.30
2022-09-24T07:49:40.063Z,13.30
2022-09-24T07:52:14.197Z,13.40
2022-09-24T07:54:48.144Z,13.40
2022-09-24T07:57:15.359Z,13.40
2022-09-24T07:59:51.142Z,13.50
2022-09-24T08:02:19.592Z,13.60
2022-09-24T08:04:54.227Z,13.70
2022-09-24T08:07:21.730Z,13.70
2022-09-24T08:09:55.248Z,13.90
2022-09-24T08:12:27.932Z,14.00
2022-09-24T08:15:01.257Z,14.10
2022-09-24T08:17:28.521Z,14.30
2022-09-24T08:20:05.273Z,14.30
2022-09-24T08:22:40.292Z,14.50
2022-09-24T08:25:27.286Z,14.60
2022-09-24T08:27:54.858Z,14.80
2022-09-24T08:30:28.283Z,15.00
2022-09-24T08:32:56.547Z,15.10
2022-09-24T08:35:30.143Z,15.20
2022-09-24T08:37:57.366Z,15.40
2022-09-24T08:40:34.135Z,15.50
2022-09-24T08:43:26.144Z,15.60
2022-09-24T08:46:19.334Z,15.70
2022-09-24T08:49:00.206Z,15.70
2022-09-24T08:51:33.461Z,15.70
2022-09-24T08:54:18.142Z,15.80
2022-09-24T08:56:47.032Z,15.90
2022-09-24T08:59:41.323Z,16.00
2022-09-24T09:02:17.915Z,16.20
2022-09-24T09:05:18.501Z,16.50
2022-09-24T09:08:45.111Z,16.60
2022-09-24T09:11:14.252Z,16.60
2022-09-24T09:14:26.925Z,16.60
2022-09-24T09:17:08.147Z,16.70
2022-09-24T09:19:35.737Z,16.70
2022-09-24T09:22:22.518Z,16.70
2022-09-24T09:25:16.357Z,16.70
2022-09-24T09:27:50.182Z,16.80
2022-09-24T09:30:21.137Z,16.80
2022-09-24T09:33:45.688Z,16.80
2022-09-24T09:36:38.668Z,17.00
2022-09-24T09:39:46.327Z,17.10
2022-09-24T09:42:36.610Z,17.10
2022-09-24T09:45:54.477Z,17.10
2022-09-24T09:48:26.852Z,17.10
2022-09-24T09:51:12.207Z,17.10
2022-09-24T09:53:40.304Z,17.10
2022-09-24T09:56:15.582Z,17.20
2022-09-24T09:58:54.285Z,17.20
2022-09-24T10:01:32.202Z,17.20
2022-09-24T10:04:10.273Z,17.30
2022-09-24T10:06:44.224Z,17.30
2022-09-24T10:09:20.144Z,17.20
2022-09-24T10:11:55.327Z,17.10
2022-09-24T10:14:22.775Z,17.10
2022-09-24T10:17:01.463Z,17.10
2022-09-24T10:19:29.363Z,17.10
2022-09-24T10:22:06.164Z,17.20
2022-09-24T10:24:43.437Z,17.20
2022-09-24T10:27:44.197Z,17.30
2022-09-24T10:30:35.213Z,17.40
2022-09-24T10:33:12.215Z,17.60
2022-09-24T10:35:40.233Z,17.80
2022-09-24T10:38:28.202Z,18.00
2022-09-24T10:40:55.478Z,18.10
2022-09-24T10:43:30.152Z,18.20
2022-09-24T10:46:35.329Z,18.30
2022-09-24T10:49:46.552Z,18.40
2022-09-24T10:52:20.253Z,18.40
2022-09-24T10:54:58.026Z,18.50
2022-09-24T10:57:41.351Z,18.50
2022-09-24T11:00:25.169Z,18.40
2022-09-24T11:03:08.468Z,18.40
2022-09-24T11:05:49.628Z,18.30
2022-09-24T11:08:44.951Z,18.30
2022-09-24T11:11:49.192Z,18.20
2022-09-24T11:14:44.202Z,18.10
2022-09-24T11:17:51.363Z,18.10
2022-09-24T11:20:57.807Z,18.00
2022-09-24T11:23:48.227Z,18.00
2022-09-24T11:26:42.634Z,18.00
2022-09-24T11:29:21.075Z,18.00
2022-09-24T11:32:15.286Z,18.00
2022-09-24T11:35:23.947Z,18.00
2022-09-24T11:38:11.486Z,18.00
2022-09-24T11:40:48.281Z,18.00
2022-09-24T11:43:40.256Z,18.00
2022-09-24T11:46:36.363Z,17.90
2022-09-24T11:49:16.196Z,17.90
2022-09-24T11:51:56.575Z,17.90
2022-09-24T11:54:52.221Z,17.80
2022-09-24T11:57:32.295Z,17.80
2022-09-24T12:00:08.147Z,17.70
2022-09-24T12:02:58.397Z,17.70
2022-09-24T12:05:31.481Z,17.60
2022-09-24T12:08:18.304Z,17.50
2022-09-24T12:11:13.999Z,17.50
2022-09-24T12:14:20.011Z,17.40
2022-09-24T12:16:54.095Z,17.40
2022-09-24T12:20:07.321Z,17.30
2022-09-24T12:22:38.258Z,17.30
2022-09-24T12:25:14.672Z,17.30
2022-09-24T12:27:48.736Z,17.30
2022-09-24T12:31:02.467Z,17.30
2022-09-24T12:33:30.134Z,17.30
2022-09-24T12:36:22.438Z,17.30
2022-09-24T12:39:12.867Z,17.30
2022-09-24T12:41:48.307Z,17.30
2022-09-24T12:44:28.434Z,17.30
2022-09-24T12:47:06.509Z,17.30
2022-09-24T12:49:37.026Z,17.30
2022-09-24T12:52:46.234Z,17.40
2022-09-24T12:55:34.433Z,17.40
2022-09-24T12:58:13.228Z,17.40
2022-09-24T13:00:47.529Z,17.40
2022-09-24T13:03:56.381Z,17.50
2022-09-24T13:06:36.138Z,17.50
2022-09-24T13:09:29.711Z,17.50
2022-09-24T13:12:16.002Z,17.60
2022-09-24T13:15:11.231Z,17.60
2022-09-24T13:17:38.880Z,17.70
2022-09-24T13:20:25.649Z,17.70
2022-09-24T13:23:13.141Z,17.70
2022-09-24T13:25:47.243Z,17.70
2022-09-24T13:28:38.315Z,17.70
2022-09-24T13:31:45.392Z,17.70
2022-09-24T13:34:31.809Z,17.70
2022-09-24T13:37:24.278Z,17.70
2022-09-24T13:40:04.463Z,17.60
2022-09-24T13:42:50.231Z,17.60
2022-09-24T13:45:29.403Z,17.60
2022-09-24T13:48:14.706Z,17.60
2022-09-24T13:50:57.286Z,17.70
2022-09-24T13:53:33.801Z,17.70
2022-09-24T13:56:11.483Z,17.80
2022-09-24T13:58:41.455Z,17.90
2022-09-24T14:01:36.238Z,17.90
2022-09-24T14:04:15.374Z,18.00
2022-09-24T14:06:46.182Z,18.10
2022-09-24T14:09:31.386Z,18.20
2022-09-24T14:12:12.653Z,18.20
2022-09-24T14:14:54.603Z,18.20
2022-09-24T14:17:28.562Z,18.20
2022-09-24T14:19:57.906Z,18.20
2022-09-24T14:22:47.228Z,18.10
2022-09-24T14:25:46.312Z,18.10
2022-09-24T14:28:14.081Z,18.00
2022-09-24T14:30:58.441Z,18.00
2022-09-24T14:33:38.042Z,18.00
2022-09-24T14:36:12.598Z,17.90
2022-09-24T14:39:19.846Z,17.90
2022-09-24T14:41:47.297Z,17.90
2022-09-24T14:44:37.492Z,17.80
2022-09-24T14:47:11.350Z,17.80
2022-09-24T14:49:45.835Z,17.70
2022-09-24T14:52:40.386Z,17.70
2022-09-24T14:55:19.995Z,17.70
2022-09-24T14:57:57.863Z,17.60
2022-09-24T15:00:48.323Z,17.60
2022-09-24T15:03:27.382Z,17.60
2022-09-24T15:06:05.198Z,17.50
2022-09-24T15:08:39.343Z,17.50
2022-09-24T15:11:07.141Z,17.50
2022-09-24T15:13:50.438Z,17.50
2022-09-24T15:16:37.588Z,17.40
2022-09-24T15:19:19.752Z,17.40
2022-09-24T15:21:48.880Z,17.40
2022-09-24T15:24:24.550Z,17.40
2022-09-24T15:27:31.382Z,17.30
2022-09-24T15:30:07.444Z,17.30
2022-09-24T15:32:36.988Z,17.30
2022-09-24T15:35:16.290Z,17.30
2022-09-24T15:37:44.201Z,17.20
2022-09-24T15:40:31.357Z,17.20
2022-09-24T15:42:58.718Z,17.10
2022-09-24T15:45:33.399Z,17.10
2022-09-24T15:48:00.752Z,17.10
2022-09-24T15:50:47.799Z,17.10
2022-09-24T15:53:26.078Z,17.00
2022-09-24T15:56:03.477Z,17.00
2022-09-24T15:58:31.745Z,17.00
2022-09-24T16:01:05.343Z,16.90
2022-09-24T16:03:40.363Z,16.90
2022-09-24T16:06:10.447Z,16.90
2022-09-24T16:08:45.346Z,16.90
2022-09-24T16:11:19.351Z,16.80
2022-09-24T16:13:53.479Z,16.80
2022-09-24T16:16:27.353Z,16.80
2022-09-24T16:18:54.570Z,16.80
2022-09-24T16:21:29.284Z,16.70
2022-09-24T16:24:03.640Z,16.70
2022-09-24T16:26:50.274Z,16.70
2022-09-24T16:29:25.625Z,16.70
2022-09-24T16:31:53.370Z,16.70
2022-09-24T16:34:27.347Z,16.60
2022-09-24T16:36:54.625Z,16.70
2022-09-24T16:39:28.295Z,16.70
2022-09-24T16:41:55.896Z,16.70
2022-09-24T16:44:29.265Z,16.70
2022-09-24T16:46:56.496Z,16.60
2022-09-24T16:49:37.175Z,16.60
2022-09-24T16:52:04.652Z,16.50
2022-09-24T16:54:41.185Z,16.50
2022-09-24T16:57:08.883Z,16.50
2022-09-24T16:59:42.572Z,16.40
2022-09-24T17:02:13.483Z,16.40
2022-09-24T17:04:48.300Z,16.30
2022-09-24T17:07:15.689Z,16.30
2022-09-24T17:10:08.346Z,16.30
2022-09-24T17:12:36.955Z,16.30
2022-09-24T17:15:11.752Z,16.30
2022-09-24T17:17:48.628Z,16.20
2022-09-24T17:20:25.356Z,16.20
2022-09-24T17:22:53.550Z,16.20
2022-09-24T17:25:27.238Z,16.20
2022-09-24T17:28:09.672Z,16.20
2022-09-24T17:30:38.492Z,16.20
2022-09-24T17:33:39.037Z,16.10
2022-09-24T17:36:01.684Z,16.10
2022-09-24T17:38:38.262Z,16.00
2022-09-24T17:41:11.314Z,16.00
2022-09-24T17:43:46.354Z,16.00
2022-09-24T17:46:24.422Z,16.00
2022-09-24T17:49:01.474Z,16.00
2022-09-24T17:51:34.662Z,15.90
2022-09-24T17:54:11.349Z,15.80
2022-09-24T17:56:39.254Z,15.80
2022-09-24T17:59:20.842Z,15.80
2022-09-24T18:01:58.884Z,15.80
2022-09-24T18:04:28.895Z,15.80
2022-09-24T18:07:02.361Z,15.80
2022-09-24T18:09:31.025Z,15.80
2022-09-24T18:12:05.447Z,15.70
2022-09-24T18:14:41.651Z,15.80
2022-09-24T18:17:15.255Z,15.80
2022-09-24T18:19:45.493Z,15.70
2022-09-24T18:22:20.379Z,15.70
2022-09-24T18:24:54.870Z,15.70
2022-09-24T18:27:28.594Z,15.70
2022-09-24T18:30:10.493Z,15.70
2022-09-24T18:32:47.649Z,15.70
2022-09-24T18:35:15.285Z,15.70
2022-09-24T18:37:50.510Z,15.60
2022-09-24T18:40:17.995Z,15.70
2022-09-24T18:42:51.419Z,15.70
2022-09-24T18:45:18.939Z,15.70
2022-09-24T18:47:52.439Z,15.60
2022-09-24T18:50:19.726Z,15.60
2022-09-24T18:52:53.257Z,15.70
2022-09-24T18:55:22.838Z,15.60
2022-09-24T18:57:57.743Z,15.60
2022-09-24T19:00:43.224Z,15.60
2022-09-24T19:03:17.771Z,15.60
2022-09-24T19:05:48.796Z,15.60
2022-09-24T19:08:18.861Z,15.60
2022-09-24T19:10:53.423Z,15.60
2022-09-24T19:13:26.206Z,15.60
2022-09-24T19:16:00.834Z,15.60
2022-09-24T19:18:29.523Z,15.60
2022-09-24T19:21:04.695Z,15.60
2022-09-24T19:23:32.061Z,15.60
2022-09-24T19:26:06.568Z,15.60
2022-09-24T19:28:41.894Z,15.60
2022-09-24T19:31:43.375Z,15.60
2022-09-24T19:34:14.698Z,15.60
2022-09-24T19:36:49.833Z,15.60
2022-09-24T19:39:18.927Z,15.60
2022-09-24T19:41:53.722Z,15.60
2022-09-24T19:44:21.491Z,15.50
2022-09-24T19:46:55.530Z,15.50
2022-09-24T19:49:23.976Z,15.50
2022-09-24T19:51:57.595Z,15.50
2022-09-24T19:54:24.987Z,15.50
2022-09-24T19:56:59.475Z,15.50
2022-09-24T19:59:33.582Z,15.50
2022-09-24T20:02:01.200Z,15.50
2022-09-24T20:04:35.474Z,15.50
2022-09-24T20:07:05.938Z,15.50
2022-09-24T20:09:40.554Z,15.50
2022-09-24T20:12:08.219Z,15.50
2022-09-24T20:14:42.533Z,15.50
2022-09-24T20:17:10.327Z,15.50
2022-09-24T20:19:44.383Z,15.50
2022-09-24T20:22:17.147Z,15.50
2022-09-24T20:24:51.451Z,15.50
2022-09-24T20:27:57.437Z,15.50
2022-09-24T20:30:31.464Z,15.40
2022-09-24T20:32:59.031Z,15.40
2022-09-24T20:35:27.193Z,15.40
2022-09-24T20:38:01.458Z,15.40
2022-09-24T20:40:36.843Z,15.40
2022-09-24T20:43:04.532Z,15.40
2022-09-24T20:45:40.426Z,15.40
2022-09-24T20:48:12.547Z,15.40
2022-09-24T20:50:46.585Z,15.40
2022-09-24T20:53:13.917Z,15.40
2022-09-24T20:55:47.377Z,15.40
2022-09-24T20:58:16.855Z,15.40
2022-09-24T21:01:01.351Z,15.40
2022-09-24T21:03:50.643Z,15.40
2022-09-24T21:06:26.678Z,15.40
2022-09-24T21:08:54.279Z,15.30
2022-09-24T21:11:32.845Z,15.30
2022-09-24T21:14:03.929Z,15.20
2022-09-24T21:16:40.348Z,15.20
2022-09-24T21:19:08.973Z,15.20
2022-09-24T21:21:45.411Z,15.20
2022-09-24T21:24:15.007Z,15.10
2022-09-24T21:26:56.608Z,15.20
2022-09-24T21:29:24.089Z,15.10
2022-09-24T21:32:00.418Z,15.20
2022-09-24T21:34:34.476Z,15.20
2022-09-24T21:37:01.898Z,15.10
2022-09-24T21:39:35.363Z,15.10
2022-09-24T21:42:09.436Z,15.10
2022-09-24T21:44:37.102Z,15.10
2022-09-24T21:47:12.444Z,15.10
2022-09-24T21:49:39.588Z,15.10
2022-09-24T21:52:07.041Z,15.10
2022-09-24T21:54:43.157Z,15.10
2022-09-24T21:57:10.530Z,15.10
2022-09-24T22:00:23.360Z,15.10
2022-09-24T22:02:57.410Z,15.00
2022-09-24T22:05:31.623Z,15.00
2022-09-24T22:07:59.317Z,15.00
2022-09-24T22:10:35.613Z,15.00
2022-09-24T22:13:10.851Z,15.00
2022-09-24T22:15:38.320Z,15.00
2022-09-24T22:18:12.395Z,15.00
2022-09-24T22:20:44.265Z,15.00
2022-09-24T22:23:19.590Z,15.00
2022-09-24T22:25:47.439Z,15.00
2022-09-24T22:28:22.318Z,15.00
2022-09-24T22:30:57.200Z,15.00
2022-09-24T22:33:50.381Z,15.00
2022-09-24T22:36:17.710Z,15.00
2022-09-24T22:38:51.596Z,15.00
2022-09-24T22:41:25.365Z,15.00
2022-09-24T22:43:53.252Z,14.90
2022-09-24T22:46:34.112Z,15.00
2022-09-24T22:49:08.610Z,14.90
2022-09-24T22:51:43.602Z,15.00
2022-09-24T22:54:11.262Z,15.00
2022-09-24T22:56:45.460Z,15.00
2022-09-24T22:59:12.923Z,15.00
2022-09-24T23:01:50.457Z,15.00
2022-09-24T23:04:17.941Z,15.00
2022-09-24T23:06:51.427Z,15.00
2022-09-24T23:09:18.712Z,15.00
2022-09-24T23:11:52.436Z,14.90
2022-09-24T23:14:19.722Z,14.90
2022-09-24T23:16:53.509Z,14.90
2022-09-24T23:19:21.423Z,14.90
2022-09-24T23:21:55.720Z,14.90
2022-09-24T23:24:24.708Z,14.80
2022-09-24T23:27:04.536Z,14.80
2022-09-24T23:29:39.936Z,14.80
2022-09-24T23:32:16.610Z,14.80
2022-09-24T23:34:48.043Z,14.80
2022-09-24T23:37:21.357Z,14.90
2022-09-24T23:39:48.671Z,14.90
2022-09-24T23:42:22.458Z,14.90
2022-09-24T23:44:49.904Z,14.90
2022-09-24T23:47:24.425Z,14.90
2022-09-24T23:49:58.867Z,14.90
2022-09-24T23:52:26.293Z,14.90
2022-09-24T23:55:03.132Z,14.90
2022-09-24T23:57:30.372Z,15.00
